Time;durP1;ratioP1;P1;durP2;ratioP2;P2;SDS_P1;SDS_P2;PMS_P1;PMS_P2;Temp;Humidity;BMP_temperature;BMP_pressure;BME280_temperature;BME280_humidity;BME280_pressure;Samples;Min_cycle;Max_cycle;Signal;HPM_P1;HPM_P2
2022/10/02 00:00:36;;;;;;;4.40;2.90;;;;;;;;;;5119840;27;20028;-69
2022/10/02 00:03:11;;;;;;;6.38;3.22;;;;;;;;;;5116359;27;20038;-69
2022/10/02 00:05:39;;;;;;;6.75;3.20;;;;;;;;;;5120153;27;20031;-69
2022/10/02 00:08:05;;;;;;;6.38;3.40;;;;;;;;;;5118301;27;20046;-68
2022/10/02 00:10:33;;;;;;;5.73;3.60;;;;;;;;;;5122946;27;20473;-69
2022/10/02 00:13:03;;;;;;;6.57;3.85;;;;;;;;;;5120174;27;20298;-69
2022/10/02 00:15:30;;;;;;;9.65;4.05;;;;;;;;;;5117162;27;20027;-68
2022/10/02 00:17:58;;;;;;;6.75;3.75;;;;;;;;;;5119266;27;20020;-69
2022/10/02 00:20:31;;;;;;;6.60;3.35;;;;;;;;;;5110660;27;20503;-69
2022/10/02 00:23:15;;;;;;;3.47;2.70;;;;;;;;;;5116685;27;20035;-68
2022/10/02 00:25:44;;;;;;;9.15;3.50;;;;;;;;;;5115230;27;20034;-68
2022/10/02 00:28:09;;;;;;;5.50;3.28;;;;;;;;;;5097730;28;20043;-68
2022/10/02 00:30:51;;;;;;;4.87;3.03;;;;;;;;;;5096876;28;20016;-69
2022/10/02 00:33:26;;;;;;;8.20;3.05;;;;;;;;;;5101182;28;20027;-69
2022/10/02 00:36:07;;;;;;;5.30;3.45;;;;;;;;;;5095109;28;20020;-70
2022/10/02 00:38:55;;;;;;;5.60;3.50;;;;;;;;;;5108590;27;20084;-69
2022/10/02 00:41:30;;;;;;;6.55;3.60;;;;;;;;;;5102823;28;20164;-69
2022/10/02 00:43:55;;;;;;;6.07;3.90;;;;;;;;;;5106835;28;20024;-69
2022/10/02 00:46:23;;;;;;;10.43;4.57;;;;;;;;;;5102466;28;20024;-68
2022/10/02 00:48:54;;;;;;;6.13;4.45;;;;;;;;;;5104476;28;20050;-70
2022/10/02 00:51:19;;;;;;;6.15;4.43;;;;;;;;;;5104437;28;20031;-69
2022/10/02 00:53:51;;;;;;;4.63;3.70;;;;;;;;;;5102259;28;20388;-68
2022/10/02 00:56:29;;;;;;;5.97;3.90;;;;;;;;;;5105531;28;20130;-69
2022/10/02 00:59:03;;;;;;;5.35;4.05;;;;;;;;;;5101713;28;20828;-69
2022/10/02 01:01:31;;;;;;;7.88;3.70;;;;;;;;;;5107201;28;20077;-68
2022/10/02 01:03:58;;;;;;;6.03;4.00;;;;;;;;;;5105168;28;20039;-69
2022/10/02 01:06:24;;;;;;;5.72;4.38;;;;;;;;;;5102559;28;20032;-69
2022/10/02 01:08:50;;;;;;;5.15;3.88;;;;;;;;;;5106140;27;20790;-70
2022/10/02 01:11:16;;;;;;;5.00;3.97;;;;;;;;;;5110641;28;20028;-69
2022/10/02 01:13:42;;;;;;;7.70;4.00;;;;;;;;;;5103940;27;20035;-68
2022/10/02 01:16:10;;;;;;;8.27;4.57;;;;;;;;;;5106216;27;20477;-69
2022/10/02 01:18:35;;;;;;;5.38;4.28;;;;;;;;;;5105936;28;20027;-69
2022/10/02 01:21:09;;;;;;;5.60;4.00;;;;;;;;;;5105351;28;20442;-69
2022/10/02 01:23:34;;;;;;;7.95;4.43;;;;;;;;;;5104335;28;20102;-69
2022/10/02 01:25:59;;;;;;;4.47;3.60;;;;;;;;;;5109494;27;20119;-69
2022/10/02 01:28:25;;;;;;;5.65;4.25;;;;;;;;;;5112587;27;20048;-69
2022/10/02 01:30:52;;;;;;;7.43;4.70;;;;;;;;;;5105685;27;20055;-70
2022/10/02 01:33:18;;;;;;;5.72;4.15;;;;;;;;;;5099236;28;20448;-68
2022/10/02 01:35:43;;;;;;;5.15;3.88;;;;;;;;;;5106839;28;20111;-68
2022/10/02 01:38:11;;;;;;;6.78;4.20;;;;;;;;;;5099918;27;20023;-69
2022/10/02 01:40:37;;;;;;;6.75;4.15;;;;;;;;;;5105725;28;20035;-69
2022/10/02 01:43:07;;;;;;;6.38;4.53;;;;;;;;;;5105435;28;20741;-69
2022/10/02 01:45:52;;;;;;;4.80;3.90;;;;;;;;;;5108857;27;20060;-69
2022/10/02 01:48:32;;;;;;;7.93;4.50;;;;;;;;;;5104430;28;20493;-69
2022/10/02 01:51:06;;;;;;;5.53;3.88;;;;;;;;;;5105129;28;20112;-69
2022/10/02 01:53:49;;;;;;;7.32;4.38;;;;;;;;;;5098035;28;20055;-68
2022/10/02 01:56:36;;;;;;;6.22;3.83;;;;;;;;;;5095222;28;20051;-69
2022/10/02 01:59:06;;;;;;;8.88;4.15;;;;;;;;;;5102648;28;20034;-69
2022/10/02 02:01:31;;;;;;;5.80;4.00;;;;;;;;;;5098930;28;20036;-69
2022/10/02 02:03:56;;;;;;;6.57;3.93;;;;;;;;;;5096768;28;20097;-69
2022/10/02 02:06:36;;;;;;;7.23;4.37;;;;;;;;;;5097169;28;20089;-69
2022/10/02 02:09:25;;;;;;;8.95;4.00;;;;;;;;;;5094895;28;20625;-70
2022/10/02 02:11:55;;;;;;;6.40;3.85;;;;;;;;;;5090433;28;20035;-70
2022/10/02 02:14:43;;;;;;;5.97;4.10;;;;;;;;;;5096583;28;20028;-70
2022/10/02 02:17:11;;;;;;;7.38;4.15;;;;;;;;;;5098225;28;20431;-69
2022/10/02 02:19:41;;;;;;;8.55;4.18;;;;;;;;;;5097112;28;20494;-70
2022/10/02 02:22:10;;;;;;;5.18;3.80;;;;;;;;;;5102068;28;20816;-70
2022/10/02 02:24:35;;;;;;;7.47;4.00;;;;;;;;;;5096745;28;20043;-70
2022/10/02 02:27:02;;;;;;;4.47;3.72;;;;;;;;;;5103350;27;20056;-69
2022/10/02 02:29:30;;;;;;;6.45;3.70;;;;;;;;;;5117922;27;20077;-70
2022/10/02 02:31:56;;;;;;;6.13;3.40;;;;;;;;;;5119910;27;20049;-70
2022/10/02 02:34:24;;;;;;;5.28;3.60;;;;;;;;;;5124272;27;20024;-70
2022/10/02 02:36:53;;;;;;;5.43;3.90;;;;;;;;;;5120203;27;20020;-70
2022/10/02 02:39:21;;;;;;;8.43;3.88;;;;;;;;;;5115106;27;20027;-70
2022/10/02 02:41:49;;;;;;;5.20;4.13;;;;;;;;;;5120926;27;20122;-70
2022/10/02 02:44:21;;;;;;;8.07;6.30;;;;;;;;;;5122025;27;20027;-70
2022/10/02 02:47:05;;;;;;;7.82;4.50;;;;;;;;;;5118112;27;20035;-69
2022/10/02 02:49:36;;;;;;;8.52;4.32;;;;;;;;;;5119515;27;20028;-70
2022/10/02 02:52:03;;;;;;;8.48;5.22;;;;;;;;;;5113262;27;20051;-69
2022/10/02 02:54:55;;;;;;;9.43;4.50;;;;;;;;;;5117832;27;20024;-70
2022/10/02 02:57:40;;;;;;;7.90;4.50;;;;;;;;;;5103000;28;20043;-70
2022/10/02 03:00:06;;;;;;;7.45;4.88;;;;;;;;;;5110238;27;20035;-70
2022/10/02 03:02:32;;;;;;;8.25;4.38;;;;;;;;;;5107606;27;20114;-69
2022/10/02 03:04:57;;;;;;;6.45;3.75;;;;;;;;;;5118675;27;20185;-70
2022/10/02 03:07:23;;;;;;;5.20;3.70;;;;;;;;;;5120139;27;20039;-70
2022/10/02 03:09:56;;;;;;;7.95;4.45;;;;;;;;;;5122368;27;20489;-70
2022/10/02 03:12:35;;;;;;;6.18;3.97;;;;;;;;;;5119626;27;20054;-70
2022/10/02 03:15:11;;;;;;;5.28;3.10;;;;;;;;;;5120058;27;20016;-69
2022/10/02 03:17:52;;;;;;;5.03;3.25;;;;;;;;;;5125156;27;20485;-70
2022/10/02 03:20:29;;;;;;;5.05;3.35;;;;;;;;;;5119318;27;20034;-70
2022/10/02 03:23:13;;;;;;;3.80;2.88;;;;;;;;;;5120697;27;20029;-69
2022/10/02 03:25:48;;;;;;;4.47;3.10;;;;;;;;;;5105740;27;20032;-70
2022/10/02 03:28:19;;;;;;;5.85;3.80;;;;;;;;;;5117630;27;20123;-69
2022/10/02 03:30:45;;;;;;;5.15;3.38;;;;;;;;;;5118798;27;20054;-70
2022/10/02 03:33:12;;;;;;;5.97;3.45;;;;;;;;;;5115140;27;20401;-70
2022/10/02 03:35:39;;;;;;;4.93;3.33;;;;;;;;;;5110110;27;20084;-69
2022/10/02 03:38:05;;;;;;;4.30;3.25;;;;;;;;;;5120063;27;20034;-70
2022/10/02 03:40:31;;;;;;;5.43;3.58;;;;;;;;;;5117607;27;20385;-69
2022/10/02 03:42:57;;;;;;;7.40;3.85;;;;;;;;;;5118294;27;20023;-70
2022/10/02 03:45:23;;;;;;;4.40;3.58;;;;;;;;;;5119948;27;20027;-70
2022/10/02 03:47:48;;;;;;;7.05;3.47;;;;;;;;;;5119812;27;20042;-70
2022/10/02 03:50:14;;;;;;;4.57;3.50;;;;;;;;;;5115748;27;20015;-70
2022/10/02 03:52:39;;;;;;;5.20;3.42;;;;;;;;;;5120913;27;20024;-69
2022/10/02 03:55:16;;;;;;;6.20;3.95;;;;;;;;;;5119095;27;20035;-70
2022/10/02 03:57:42;;;;;;;6.05;3.70;;;;;;;;;;5106653;27;20096;-70
2022/10/02 04:00:13;;;;;;;6.63;3.90;;;;;;;;;;5119528;27;20027;-70
2022/10/02 04:02:46;;;;;;;5.72;3.53;;;;;;;;;;5114909;27;20092;-70
2022/10/02 04:05:14;;;;;;;6.15;3.97;;;;;;;;;;5102954;27;20100;-70
2022/10/02 04:07:42;;;;;;;5.95;3.50;;;;;;;;;;5105559;27;20019;-70
2022/10/02 04:10:22;;;;;;;5.75;3.95;;;;;;;;;;5119175;27;20031;-70
2022/10/02 04:12:49;;;;;;;6.13;3.30;;;;;;;;;;5120240;27;20098;-70
2022/10/02 04:15:22;;;;;;;5.85;3.80;;;;;;;;;;5099191;28;20031;-70
2022/10/02 04:17:53;;;;;;;5.28;3.50;;;;;;;;;;5114906;27;20032;-69
2022/10/02 04:20:47;;;;;;;7.18;3.70;;;;;;;;;;5117232;27;20027;-70
2022/10/02 04:23:25;;;;;;;3.90;2.97;;;;;;;;;;5104221;27;20039;-70
2022/10/02 04:25:51;;;;;;;4.53;3.45;;;;;;;;;;5118571;27;20072;-70
2022/10/02 04:28:37;;;;;;;6.90;3.75;;;;;;;;;;5098149;28;20536;-70
2022/10/02 04:31:07;;;;;;;5.05;3.35;;;;;;;;;;5115340;28;20043;-70
2022/10/02 04:33:32;;;;;;;5.28;3.63;;;;;;;;;;5109532;27;20032;-71
2022/10/02 04:36:16;;;;;;;4.83;3.33;;;;;;;;;;5115556;28;20020;-71
2022/10/02 04:38:47;;;;;;;7.13;3.42;;;;;;;;;;5111335;28;20300;-69
2022/10/02 04:41:27;;;;;;;6.05;3.58;;;;;;;;;;5110082;28;20080;-69
2022/10/02 04:44:11;;;;;;;4.88;3.17;;;;;;;;;;5116720;28;20102;-69
2022/10/02 04:46:47;;;;;;;4.18;2.90;;;;;;;;;;5110873;28;20392;-70
2022/10/02 04:49:13;;;;;;;4.88;3.17;;;;;;;;;;5111809;28;20054;-69
2022/10/02 04:51:38;;;;;;;7.63;4.10;;;;;;;;;;5114656;28;20027;-70
2022/10/02 04:54:15;;;;;;;8.73;4.47;;;;;;;;;;5116702;28;20374;-70
2022/10/02 04:56:50;;;;;;;11.20;5.70;;;;;;;;;;5102295;28;20485;-69
2022/10/02 04:59:50;;;;;;;12.00;4.93;;;;;;;;;;5114699;28;20027;-70
2022/10/02 05:02:26;;;;;;;10.38;4.30;;;;;;;;;;5041719;28;20033;-70
2022/10/02 05:04:59;;;;;;;7.55;4.30;;;;;;;;;;5048717;28;20116;-71
2022/10/02 05:07:40;;;;;;;4.72;3.13;;;;;;;;;;5045548;28;20509;-69
2022/10/02 05:10:24;;;;;;;3.67;2.80;;;;;;;;;;5043457;28;20036;-71
2022/10/02 05:12:55;;;;;;;4.63;2.40;;;;;;;;;;5044775;28;20083;-71
2022/10/02 05:15:39;;;;;;;6.13;3.00;;;;;;;;;;5044494;28;20108;-70
2022/10/02 05:18:24;;;;;;;3.83;2.60;;;;;;;;;;5044988;28;20033;-71
2022/10/02 05:20:49;;;;;;;4.00;2.55;;;;;;;;;;5045237;28;20036;-72
2022/10/02 05:23:15;;;;;;;3.60;2.37;;;;;;;;;;5046545;28;20572;-71
2022/10/02 05:25:58;;;;;;;3.33;2.60;;;;;;;;;;5048436;28;20032;-71
2022/10/02 05:28:23;;;;;;;3.78;2.53;;;;;;;;;;5046799;28;20053;-71
2022/10/02 05:30:52;;;;;;;5.93;3.00;;;;;;;;;;5050819;28;20032;-70
2022/10/02 05:33:17;;;;;;;5.13;3.13;;;;;;;;;;5048057;28;20060;-72
2022/10/02 05:35:54;;;;;;;5.53;3.10;;;;;;;;;;5070622;27;20042;-70
2022/10/02 05:38:20;;;;;;;5.53;3.58;;;;;;;;;;5123994;27;20767;-71
2022/10/02 05:40:45;;;;;;;7.87;2.90;;;;;;;;;;5117201;27;20024;-71
2022/10/02 05:43:14;;;;;;;5.93;2.95;;;;;;;;;;5118465;27;20526;-71
2022/10/02 05:45:42;;;;;;;3.97;2.67;;;;;;;;;;5121596;27;20023;-71
2022/10/02 05:48:07;;;;;;;3.47;2.63;;;;;;;;;;5122644;27;20019;-72
2022/10/02 05:50:34;;;;;;;3.50;2.30;;;;;;;;;;5100885;27;20047;-71
2022/10/02 05:52:59;;;;;;;3.80;2.22;;;;;;;;;;5109857;27;20027;-69
2022/10/02 05:55:27;;;;;;;4.73;2.43;;;;;;;;;;5116966;27;20026;-70
2022/10/02 05:58:09;;;;;;;3.17;2.20;;;;;;;;;;5119397;27;20027;-70
2022/10/02 06:00:53;;;;;;;4.07;2.40;;;;;;;;;;5124126;27;20067;-70
2022/10/02 06:03:18;;;;;;;4.85;2.67;;;;;;;;;;5121531;27;20061;-70
2022/10/02 06:06:06;;;;;;;5.13;2.90;;;;;;;;;;5126014;27;20102;-70
2022/10/02 06:08:34;;;;;;;4.10;2.83;;;;;;;;;;5116545;27;20031;-70
2022/10/02 06:11:09;;;;;;;3.35;2.40;;;;;;;;;;5114930;27;20153;-70
2022/10/02 06:13:45;;;;;;;6.85;2.70;;;;;;;;;;5118835;27;20043;-71
2022/10/02 06:16:28;;;;;;;5.45;2.65;;;;;;;;;;5114593;27;20404;-69
2022/10/02 06:18:56;;;;;;;5.72;3.17;;;;;;;;;;5119323;27;20397;-70
2022/10/02 06:21:31;;;;;;;4.55;3.25;;;;;;;;;;5122774;27;20038;-69
2022/10/02 06:23:59;;;;;;;6.50;3.13;;;;;;;;;;5118943;27;20069;-70
2022/10/02 06:26:27;;;;;;;3.85;2.70;;;;;;;;;;5112466;27;20350;-70
2022/10/02 06:29:01;;;;;;;6.78;3.22;;;;;;;;;;5119321;27;20031;-70
2022/10/02 06:31:30;;;;;;;4.07;2.97;;;;;;;;;;5113294;27;20054;-70
2022/10/02 06:33:56;;;;;;;4.78;3.72;;;;;;;;;;5116514;27;20074;-69
2022/10/02 06:36:24;;;;;;;3.85;3.10;;;;;;;;;;5119007;27;20060;-70
2022/10/02 06:39:08;;;;;;;3.17;2.40;;;;;;;;;;5118843;27;20089;-71
2022/10/02 06:41:53;;;;;;;3.53;2.60;;;;;;;;;;5124201;27;20023;-69
2022/10/02 06:44:26;;;;;;;4.53;2.60;;;;;;;;;;5120872;27;20022;-70
2022/10/02 06:46:57;;;;;;;6.30;2.55;;;;;;;;;;5122001;27;20019;-69
2022/10/02 06:49:41;;;;;;;4.47;2.20;;;;;;;;;;5118357;27;20068;-70
2022/10/02 06:52:12;;;;;;;4.38;2.40;;;;;;;;;;5114204;27;20016;-70
2022/10/02 06:54:42;;;;;;;4.45;2.00;;;;;;;;;;5118818;27;20015;-69
2022/10/02 06:57:18;;;;;;;2.90;2.20;;;;;;;;;;5117003;27;20107;-69
2022/10/02 07:00:01;;;;;;;2.78;2.08;;;;;;;;;;5121325;27;20027;-68
2022/10/02 07:02:37;;;;;;;2.17;1.90;;;;;;;;;;5105451;27;20662;-68
2022/10/02 07:05:02;;;;;;;3.13;2.15;;;;;;;;;;5119900;27;20031;-67
2022/10/02 07:07:27;;;;;;;2.30;1.80;;;;;;;;;;5118492;27;20080;-69
2022/10/02 07:10:06;;;;;;;2.47;1.70;;;;;;;;;;5119701;27;20428;-67
2022/10/02 07:12:31;;;;;;;4.43;1.70;;;;;;;;;;5117850;27;20031;-69
2022/10/02 07:14:59;;;;;;;4.00;1.60;;;;;;;;;;5116073;27;20031;-70
2022/10/02 07:17:24;;;;;;;4.88;1.88;;;;;;;;;;5119985;27;20913;-70
2022/10/02 07:19:49;;;;;;;5.47;1.70;;;;;;;;;;5123981;27;20091;-69
2022/10/02 07:22:20;;;;;;;2.20;1.43;;;;;;;;;;5117701;27;20493;-69
2022/10/02 07:24:49;;;;;;;2.75;1.33;;;;;;;;;;5115972;27;20040;-70
2022/10/02 07:27:20;;;;;;;2.35;1.52;;;;;;;;;;5118506;27;20043;-69
2022/10/02 07:29:57;;;;;;;5.10;1.42;;;;;;;;;;5121628;27;20038;-69
2022/10/02 07:32:31;;;;;;;2.38;1.20;;;;;;;;;;5117471;27;20106;-70
2022/10/02 07:34:57;;;;;;;2.25;1.20;;;;;;;;;;5103220;27;20034;-71
2022/10/02 07:37:23;;;;;;;4.65;1.88;;;;;;;;;;5121061;27;20031;-70
2022/10/02 07:40:15;;;;;;;2.90;1.30;;;;;;;;;;5120319;27;20083;-69
2022/10/02 07:42:44;;;;;;;4.95;1.27;;;;;;;;;;5120306;27;20405;-68
2022/10/02 07:45:18;;;;;;;3.27;1.23;;;;;;;;;;5115842;27;20020;-69
2022/10/02 07:47:53;;;;;;;1.85;1.10;;;;;;;;;;5120975;27;20083;-69
2022/10/02 07:50:36;;;;;;;3.53;1.42;;;;;;;;;;5117013;27;20027;-69
2022/10/02 07:53:08;;;;;;;2.50;1.10;;;;;;;;;;5123973;27;20011;-69
2022/10/02 07:55:34;;;;;;;1.73;1.08;;;;;;;;;;5120446;27;20224;-69
2022/10/02 07:57:59;;;;;;;2.17;1.65;;;;;;;;;;5114931;27;20046;-70
2022/10/02 08:00:25;;;;;;;3.03;1.23;;;;;;;;;;5119684;27;20524;-70
2022/10/02 08:02:53;;;;;;;1.83;1.27;;;;;;;;;;5103589;28;20198;-70
2022/10/02 08:05:22;;;;;;;1.37;1.27;;;;;;;;;;5123424;27;20027;-69
2022/10/02 08:07:49;;;;;;;2.37;1.40;;;;;;;;;;5118394;27;20027;-70
2022/10/02 08:10:17;;;;;;;2.35;1.17;;;;;;;;;;5125099;27;20463;-70
2022/10/02 08:12:54;;;;;;;2.95;1.30;;;;;;;;;;5123934;27;20007;-69
2022/10/02 08:15:22;;;;;;;2.90;1.50;;;;;;;;;;5103626;27;20476;-70
2022/10/02 08:17:53;;;;;;;4.05;1.45;;;;;;;;;;5117297;27;20023;-69
2022/10/02 08:20:48;;;;;;;2.72;1.50;;;;;;;;;;5120892;27;20019;-69
2022/10/02 08:23:22;;;;;;;8.00;1.48;;;;;;;;;;5093522;27;20580;-69
2022/10/02 08:25:59;;;;;;;4.93;1.20;;;;;;;;;;5118798;27;20027;-69
2022/10/02 08:28:30;;;;;;;2.70;1.10;;;;;;;;;;5119310;28;20103;-70
2022/10/02 08:30:56;;;;;;;1.55;1.20;;;;;;;;;;5119055;27;20034;-69
2022/10/02 08:33:21;;;;;;;2.80;1.40;;;;;;;;;;5125129;27;20023;-69
2022/10/02 08:35:50;;;;;;;1.77;1.60;;;;;;;;;;5110956;28;20042;-70
2022/10/02 08:38:27;;;;;;;1.77;1.40;;;;;;;;;;5120331;28;20280;-70
2022/10/02 08:41:03;;;;;;;1.50;1.40;;;;;;;;;;5122992;28;20049;-70
2022/10/02 08:43:47;;;;;;;2.95;1.50;;;;;;;;;;5104731;28;20027;-70
2022/10/02 08:46:26;;;;;;;2.63;1.40;;;;;;;16.78;nan;100784.63;5111317;28;20027;-70
2022/10/02 08:48:53;;;;;;;4.45;1.40;;;;;;;;;;5112529;28;20192;-70
2022/10/02 08:51:35;;;;;;;2.30;1.23;;;;;;;;;;5123383;28;20012;-69
2022/10/02 08:54:10;;;;;;;2.33;1.50;;;;;;;;;;5118550;28;20026;-68
2022/10/02 08:56:46;;;;;;;2.35;1.23;;;;;;;;;;5114457;28;20031;-69
2022/10/02 08:59:25;;;;;;;2.50;1.30;;;;;;;;;;5122892;27;20019;-68
2022/10/02 09:01:52;;;;;;;;;;;;;;;;;;5124411;27;20033;-69
2022/10/02 09:04:27;;;;;;;3.97;1.30;;;;;;;;;;5118201;27;19931;-69
2022/10/02 09:06:52;;;;;;;2.30;1.40;;;;;;;;;;5122409;27;20023;-69
2022/10/02 09:09:36;;;;;;;2.35;1.40;;;;;;;;;;5120256;27;20019;-69
2022/10/02 09:12:20;;;;;;;4.00;1.48;;;;;;;;;;5121146;27;20099;-69
2022/10/02 09:14:48;;;;;;;2.15;1.58;;;;;;;;;;5122686;27;20509;-69
2022/10/02 09:17:49;;;;;;;3.80;1.80;;;;;;;;;;5120159;27;20619;-71
2022/10/02 09:20:17;;;;;;;2.67;1.65;;;;;;;;;;5061612;28;20029;-70
2022/10/02 09:22:46;;;;;;;3.15;1.60;;;;;;;;;;5059703;28;20094;-70
2022/10/02 09:25:12;;;;;;;;;;;;;;;;;;5066096;28;20522;-70
2022/10/02 09:27:49;;;;;;;3.40;1.73;;;;;;;;;;5064960;28;19923;-70
2022/10/02 09:30:19;;;;;;;2.17;1.58;;;;;;;;;;5063870;28;20438;-71
2022/10/02 09:33:03;;;;;;;2.03;1.40;;;;;;;;;;5063709;28;20033;-71
2022/10/02 09:35:31;;;;;;;9.15;1.50;;;;;;;;;;5064152;28;20090;-70
2022/10/02 09:38:13;;;;;;;2.65;1.70;;;;;;;;;;5064332;28;20025;-70
2022/10/02 09:40:53;;;;;;;2.08;1.50;;;;;;;;;;5060470;28;20044;-70
2022/10/02 09:43:27;;;;;;;3.75;1.45;;;;;;;;;;5064577;28;20398;-70
2022/10/02 09:46:11;;;;;;;4.15;1.50;;;;;;;;;;5067126;28;20024;-70
2022/10/02 09:48:44;;;;;;;2.05;1.30;;;;;;;;;;5069131;28;20032;-71
2022/10/02 09:51:09;;;;;;;3.22;1.33;;;;;;;;;;5064940;28;20039;-71
2022/10/02 09:53:56;;;;;;;5.37;1.30;;;;;;;18.21;nan;100772.84;5075133;27;20036;-70
2022/10/02 09:56:24;;;;;;;2.00;1.10;;;;;;;;;;5119762;27;20420;-69
2022/10/02 09:59:08;;;;;;;3.95;1.10;;;;;;;;;;5120300;27;20355;-70
2022/10/02 10:02:01;;;;;;;1.77;1.20;;;;;;;18.35;nan;100712.59;5116201;27;20016;-71
2022/10/02 10:04:57;;;;;;;1.45;0.90;;;;;;;18.46;nan;100754.19;5116171;27;20446;-71
2022/10/02 10:07:55;;;;;;;2.05;1.38;;;;;;;18.46;nan;100770.19;5117055;27;20513;-70
2022/10/02 10:10:26;;;;;;;3.30;1.00;;;;;;;18.35;nan;100765.91;5119896;27;20024;-70
2022/10/02 10:13:11;;;;;;;1.65;0.90;;;;;;;18.33;nan;100738.72;5118715;27;20028;-70
2022/10/02 10:15:56;;;;;;;3.00;0.80;;;;;;;18.40;nan;100765.09;5119554;27;20027;-70
2022/10/02 10:18:47;;;;;;;2.03;0.80;;;;;;;;;;5110549;27;20015;-71
2022/10/02 10:21:35;;;;;;;2.30;0.90;;;;;;;18.30;nan;100778.44;5120302;27;20110;-70
2022/10/02 10:24:28;;;;;;;1.55;0.75;;;;;;;18.26;nan;100738.97;5116068;27;20019;-69
2022/10/02 10:27:31;;;;;;;3.42;1.05;;;;;;;18.36;nan;100753.38;5119405;27;20501;-70
2022/10/02 10:30:06;;;;;;;5.72;0.95;;;;;;;18.33;nan;100754.72;5115973;27;20034;-70
2022/10/02 10:32:59;;;;;;;2.08;0.70;;;;;;;18.33;nan;100760.03;5104505;27;20077;-70
2022/10/02 10:35:35;;;;;;;2.97;1.00;;;;;;;18.27;nan;100713.16;5116921;27;20027;-70
2022/10/02 10:38:37;;;;;;;1.58;1.00;;;;;;;18.36;nan;100676.84;5116640;27;20027;-69
2022/10/02 10:41:08;;;;;;;4.93;1.00;;;;;;;18.66;nan;100747.22;5120121;27;20668;-69
2022/10/02 10:44:10;;;;;;;1.83;0.90;;;;;;;18.70;nan;100749.06;5106957;27;20056;-71
2022/10/02 10:46:58;;;;;;;4.20;1.33;;;;;;;18.85;nan;100742.91;5120325;27;20027;-72
2022/10/02 10:49:54;;;;;;;3.70;0.80;;;;;;;18.90;nan;100753.56;5114735;27;20023;-71
2022/10/02 10:52:56;;;;;;;4.05;0.63;;;;;;;19.00;nan;100725.25;5122875;27;20374;-70
2022/10/02 10:55:48;;;;;;;3.30;0.80;;;;;;;19.08;nan;100732.69;5112903;27;20049;-71
2022/10/02 10:58:34;;;;;;;1.70;0.68;;;;;;;18.94;nan;100688.97;5122704;27;20028;-70
2022/10/02 11:01:12;;;;;;;4.28;0.90;;;;;;;18.97;nan;100739.16;5122061;27;20023;-69
2022/10/02 11:04:15;;;;;;;4.03;1.10;;;;;;;18.96;nan;100741.00;5105581;27;20035;-69
2022/10/02 11:06:57;;;;;;;2.28;0.70;;;;;;;19.03;nan;100748.72;5103302;27;20489;-70
2022/10/02 11:09:46;;;;;;;2.70;0.88;;;;;;;18.91;nan;100731.16;5105545;28;20110;-69
2022/10/02 11:12:38;;;;;;;1.92;0.90;;;;;;;18.89;nan;100708.47;5095418;27;20067;-69
2022/10/02 11:15:07;;;;;;;3.33;0.95;;;;;;;18.96;nan;100724.19;5120187;27;20039;-69
2022/10/02 11:17:35;;;;;;;2.50;0.82;;;;;;;18.90;nan;100710.06;5125225;27;20049;-69
2022/10/02 11:20:31;;;;;;;2.45;1.02;;;;;;;18.87;nan;100714.09;5119307;27;20029;-68
2022/10/02 11:23:24;;;;;;;2.88;1.15;;;;;;;18.92;nan;100727.41;5119231;27;20548;-68
2022/10/02 11:26:02;;;;;;;5.05;1.33;;;;;;;19.09;nan;100721.75;5100775;27;20031;-70
2022/10/02 11:28:45;;;;;;;2.13;1.00;;;;;;;19.09;nan;100713.72;5118837;27;20115;-73
2022/10/02 11:31:33;;;;;;;2.10;0.90;;;;;;;19.14;nan;100702.22;5121702;27;20023;-70
2022/10/02 11:34:18;;;;;;;2.85;0.80;;;;;;;19.00;nan;100653.19;5120366;27;20023;-69
2022/10/02 11:37:01;;;;;;;1.98;1.05;;;;;;;19.20;nan;100703.81;5123408;27;20024;-70
2022/10/02 11:39:33;;;;;;;3.58;1.02;;;;;;;19.16;nan;100708.09;5106196;27;20028;-70
2022/10/02 11:42:04;;;;;;;2.40;1.20;;;;;;;;;;5116597;27;20385;-70
2022/10/02 11:44:54;;;;;;;5.32;1.02;;;;;;;19.06;nan;100700.94;5115398;27;20055;-71
2022/10/02 11:48:01;;;;;;;3.67;1.10;;;;;;;19.00;nan;100695.91;5118432;27;20024;-70
2022/10/02 11:50:32;;;;;;;2.78;1.05;;;;;;;18.99;nan;100660.41;5062683;28;20151;-70
2022/10/02 11:53:35;;;;;;;2.15;0.90;;;;;;;19.10;nan;100695.84;5057231;28;20029;-69
2022/10/02 11:56:21;;;;;;;2.10;0.70;;;;;;;19.01;nan;100692.13;5062385;28;20036;-68
2022/10/02 11:59:00;;;;;;;2.70;0.85;;;;;;;18.96;nan;100686.81;5058926;28;20410;-70
2022/10/02 12:01:40;;;;;;;2.47;0.90;;;;;;;19.07;nan;100691.84;5046172;28;20132;-71
2022/10/02 12:04:24;;;;;;;2.50;0.90;;;;;;;19.22;nan;100700.84;5051991;28;20017;-66
2022/10/02 12:07:08;;;;;;;2.15;0.90;;;;;;;19.03;nan;100703.34;5057337;28;20184;-68
2022/10/02 12:09:49;;;;;;;4.10;0.90;;;;;;;19.02;nan;100701.75;5060406;28;20839;-68
2022/10/02 12:12:33;;;;;;;2.33;1.17;;;;;;;19.19;nan;100701.41;5063693;28;20477;-68
2022/10/02 12:15:01;;;;;;;3.45;1.30;;;;;;;19.22;nan;100696.31;5059299;28;20036;-69
2022/10/02 12:17:52;;;;;;;3.75;1.52;;;;;;;19.27;nan;100706.16;5060488;28;20037;-69
2022/10/02 12:26:58;;;;;;;2.20;0.70;;;;;;;;;;5082297;27;20599;-69
2022/10/02 12:29:39;;;;;;;2.95;0.90;;;;;;;19.21;nan;100656.56;5117350;27;20038;-68
2022/10/02 12:32:25;;;;;;;3.28;0.90;;;;;;;19.34;nan;100718.13;5120148;27;20431;-69
2022/10/02 12:35:26;;;;;;;3.50;0.90;;;;;;;19.19;nan;100704.88;5120005;27;20369;-69
2022/10/02 12:38:15;;;;;;;2.47;0.90;;;;;;;19.31;nan;100710.69;5042720;28;20450;-70
2022/10/02 12:40:58;;;;;;;1.97;0.73;;;;;;;19.43;nan;100733.59;5040971;28;20042;-70
2022/10/02 12:43:42;;;;;;;1.92;0.65;;;;;;;19.44;nan;100711.16;5043265;28;20029;-71
2022/10/02 12:46:38;;;;;;;6.10;1.17;;;;;;;19.36;nan;100701.84;5033430;28;20038;-70
2022/10/02 12:49:31;;;;;;;2.95;0.65;;;;;;;19.18;nan;100767.38;5035626;28;20029;-68
2022/10/02 12:52:14;;;;;;;1.83;0.70;;;;;;;18.87;nan;100713.31;5033641;28;20075;-69
2022/10/02 12:54:49;;;;;;;3.42;0.80;;;;;;;18.89;nan;100716.47;5037549;28;20068;-68
2022/10/02 12:58:05;;;;;;;4.63;0.98;;;;;;;18.88;nan;100726.34;5035912;28;20033;-68
2022/10/02 13:00:52;;;;;;;2.50;0.90;;;;;;;18.83;nan;100723.72;5024984;28;20609;-68
2022/10/02 13:03:36;;;;;;;4.88;1.40;;;;;;;18.63;nan;100719.22;5036440;28;20032;-69
2022/10/02 13:06:18;;;;;;;2.58;0.70;;;;;;;;;;5036031;28;20038;-68
2022/10/02 13:08:55;;;;;;;4.32;1.05;;;;;;;18.55;nan;100727.75;5038154;28;20246;-69
2022/10/02 13:11:47;;;;;;;4.60;1.05;;;;;;;18.52;nan;100719.50;5059303;28;20035;-69
2022/10/02 13:14:25;;;;;;;3.35;0.82;;;;;;;18.39;nan;100713.66;5120835;28;20058;-69
2022/10/02 13:17:09;;;;;;;2.42;1.00;;;;;;;18.55;nan;100735.75;5116175;28;20431;-68
2022/10/02 13:19:48;;;;;;;3.28;1.30;;;;;;;18.47;nan;100722.97;5113703;28;20042;-69
2022/10/02 13:22:16;;;;;;;5.10;1.10;;;;;;;18.45;nan;100731.22;5114443;28;20026;-68
2022/10/02 13:25:20;;;;;;;2.00;1.03;;;;;;;18.50;nan;100722.41;5114783;28;20035;-68
2022/10/02 13:28:12;;;;;;;1.30;0.90;;;;;;;18.43;nan;100690.69;5121228;28;20047;-68
2022/10/02 13:31:19;;;;;;;4.95;1.00;;;;;;;18.22;nan;100715.78;5115641;28;20485;-68
2022/10/02 13:33:59;;;;;;;2.45;0.80;;;;;;;18.10;nan;100718.75;5107156;28;20050;-68
2022/10/02 13:36:34;;;;;;;2.60;1.27;;;;;;;18.17;nan;100707.78;5114181;28;20034;-68
2022/10/02 13:39:27;;;;;;;6.28;1.40;;;;;;;18.18;nan;100702.22;5118135;28;20140;-69
2022/10/02 13:41:58;;;;;;;6.20;1.23;;;;;;;18.09;nan;100706.47;5114054;28;20019;-68
2022/10/02 13:45:05;;;;;;;6.00;1.48;;;;;;;18.11;nan;100695.56;5118788;27;20034;-69
2022/10/02 13:47:47;;;;;;;2.60;1.17;;;;;;;17.94;nan;100707.28;5083142;27;20039;-68
2022/10/02 13:50:22;;;;;;;3.25;0.93;;;;;;;;;;5118323;27;20477;-68
2022/10/02 13:52:47;;;;;;;3.00;1.10;;;;;;;;;;5111984;27;20568;-68
2022/10/02 13:55:16;;;;;;;7.63;1.33;;;;;;;;;;5118219;27;20102;-69
2022/10/02 13:57:59;;;;;;;3.00;1.83;;;;;;;;;;5120334;27;20019;-69
2022/10/02 14:00:37;;;;;;;5.25;1.75;;;;;;;;;;5122661;27;20079;-69
2022/10/02 14:03:02;;;;;;;3.38;1.10;;;;;;;;;;5120462;27;20027;-68
2022/10/02 14:05:27;;;;;;;4.20;1.90;;;;;;;;;;5109196;27;20042;-67
2022/10/02 14:08:04;;;;;;;3.67;1.30;;;;;;;;;;5119924;27;20023;-68
2022/10/02 14:10:29;;;;;;;1.83;0.98;;;;;;;;;;5121797;27;20026;-68
2022/10/02 14:13:13;;;;;;;4.47;1.40;;;;;;;;;;5118306;27;20024;-68
2022/10/02 14:15:42;;;;;;;3.47;1.10;;;;;;;;;;5105403;27;20295;-68
2022/10/02 14:18:30;;;;;;;4.90;1.33;;;;;;;;;;5122148;27;20673;-68
2022/10/02 14:21:03;;;;;;;3.17;1.20;;;;;;;;;;5108614;27;20119;-69
2022/10/02 14:23:46;;;;;;;6.80;1.80;;;;;;;;;;5121571;27;20027;-68
2022/10/02 14:26:17;;;;;;;5.07;2.33;;;;;;;;;;5117665;27;20034;-70
2022/10/02 14:28:43;;;;;;;3.10;1.95;;;;;;;;;;5117621;27;20035;-70
2022/10/02 14:31:27;;;;;;;4.70;1.87;;;;;;;;;;5120952;27;20027;-71
2022/10/02 14:33:52;;;;;;;6.38;1.60;;;;;;;;;;5119763;27;20031;-71
2022/10/02 14:36:26;;;;;;;3.60;1.20;;;;;;;;;;5123358;27;20103;-71
2022/10/02 14:38:51;;;;;;;2.65;1.08;;;;;;;;;;5124976;27;20369;-71
2022/10/02 14:41:29;;;;;;;3.53;1.00;;;;;;;;;;5120161;27;20023;-71
2022/10/02 14:43:54;;;;;;;3.85;1.02;;;;;;;;;;5120657;27;20034;-70
2022/10/02 14:46:25;;;;;;;5.17;1.60;;;;;;;;;;5117814;27;20389;-71
2022/10/02 14:49:06;;;;;;;2.70;1.58;;;;;;;;;;5120906;27;20270;-71